Time;durP1;ratioP1;P1;durP2;ratioP2;P2;SDS_P1;SDS_P2;PMS_P1;PMS_P2;Temp;Humidity;BMP_temperature;BMP_pressure;BME280_temperature;BME280_humidity;BME280_pressure;Samples;Min_cycle;Max_cycle;Signal;HPM_P1;HPM_P2
2022/02/05 00:02:39;;;;;;;7.13;2.83;;;3.40;90.90;;;;;;5044609;28;20571;-92
2022/02/05 00:05:05;;;;;;;12.60;3.70;;;3.50;90.90;;;;;;5029010;28;20173;-92
2022/02/05 00:07:47;;;;;;;9.53;3.73;;;3.50;90.80;;;;;;5030856;28;20188;-93
2022/02/05 00:10:32;;;;;;;13.10;4.45;;;3.50;90.80;;;;;;5038576;28;20429;-93
2022/02/05 00:13:34;;;;;;;15.23;4.77;;;3.50;90.80;;;;;;5030247;28;20169;-92
2022/02/05 00:43:15;;;;;;;2.57;2.37;;;3.10;91.50;;;;;;5054380;28;20232;-92
2022/02/05 00:45:45;;;;;;;3.70;2.83;;;3.00;91.80;;;;;;5037307;28;20192;-92
2022/02/05 00:48:12;;;;;;;3.43;2.57;;;3.00;91.80;;;;;;5034090;28;20167;-92
2022/02/05 00:50:42;;;;;;;4.70;2.40;;;3.10;91.60;;;;;;5032384;28;20200;-92
2022/02/05 00:53:14;;;;;;;6.53;2.77;;;3.10;91.60;;;;;;5032167;28;20184;-91
2022/02/05 00:55:44;;;;;;;2.23;2.03;;;3.10;91.60;;;;;;5026990;28;20177;-91
2022/02/05 00:58:09;;;;;;;12.73;3.30;;;3.00;91.70;;;;;;5027440;28;20180;-91
2022/02/05 01:00:37;;;;;;;5.47;2.83;;;3.00;91.70;;;;;;5024246;28;20215;-91
2022/02/05 01:03:03;;;;;;;7.33;3.83;;;3.10;91.80;;;;;;5023491;28;20243;-92
2022/02/05 01:05:29;;;;;;;6.43;3.00;;;3.10;91.90;;;;;;5025062;28;20196;-92
2022/02/05 01:07:59;;;;;;;7.23;3.17;;;3.20;91.80;;;;;;5027305;28;20175;-92
2022/02/05 01:10:26;;;;;;;10.03;3.33;;;3.20;91.90;;;;;;5032752;28;20254;-93
2022/02/05 01:12:57;;;;;;;8.07;3.83;;;3.10;92.00;;;;;;5032623;28;20239;-92
2022/02/05 01:15:27;;;;;;;6.43;2.90;;;3.10;92.10;;;;;;5034580;28;20605;-93
2022/02/05 01:18:00;;;;;;;8.37;3.20;;;3.00;92.30;;;;;;5034154;28;20189;-92
2022/02/05 01:23:02;;;;;;;6.80;3.37;;;2.90;92.40;;;;;;5051196;28;20168;-92
2022/02/05 01:25:34;;;;;;;10.43;3.30;;;2.90;92.50;;;;;;5035225;28;20169;-93
2022/02/05 01:28:07;;;;;;;10.17;3.40;;;3.00;92.50;;;;;;5032566;28;20153;-92
2022/02/05 01:30:37;;;;;;;7.23;3.70;;;3.00;92.40;;;;;;5027022;28;20250;-92
2022/02/05 01:35:59;;;;;;;10.10;3.77;;;3.00;92.40;;;;;;5036694;28;20161;-91
2022/02/05 01:52:43;;;;;;;7.83;3.80;;;3.10;92.40;;;;;;5038265;28;20214;-93
2022/02/05 01:55:15;;;;;;;8.47;3.97;;;3.20;92.20;;;;;;5039947;28;20183;-92
2022/02/05 01:58:08;;;;;;;7.87;3.30;;;3.20;91.90;;;;;;5020693;28;20174;-92
2022/02/05 02:06:29;;;;;;;11.10;3.30;;;3.10;92.10;;;;;;5044142;28;20272;-92
2022/02/05 02:11:58;;;;;;;9.60;2.93;;;3.10;92.20;;;;;;5044154;28;20207;-92
2022/02/05 02:14:38;;;;;;;17.73;3.57;;;3.20;92.20;;;;;;5025917;28;20161;-93
2022/02/05 02:17:43;;;;;;;5.43;2.43;;;3.20;92.00;;;;;;5027223;28;20168;-92
2022/02/05 02:25:08;;;;;;;3.33;2.40;;;3.20;91.40;;;;;;5042505;28;20193;-91
2022/02/05 02:27:42;;;;;;;6.77;2.43;;;3.20;91.40;;;;;;5023603;28;20602;-92
2022/02/05 02:30:20;;;;;;;6.80;2.57;;;3.30;91.30;;;;;;5025574;28;20203;-92
2022/02/05 02:32:51;;;;;;;10.27;3.20;;;3.30;91.20;;;;;;5026176;28;20217;-92
2022/02/05 02:35:23;;;;;;;2.80;2.60;;;3.30;91.10;;;;;;5026981;28;20172;-92
2022/02/05 02:37:56;;;;;;;6.30;3.50;;;3.30;91.20;;;;;;5023798;28;20226;-91
2022/02/05 02:42:53;;;;;;;4.83;2.93;;;3.30;91.30;;;;;;5040707;28;20173;-92
2022/02/05 02:45:19;;;;;;;15.60;4.40;;;3.20;91.30;;;;;;5024248;28;20191;-92
2022/02/05 02:47:45;;;;;;;13.00;3.60;;;3.30;91.50;;;;;;5026533;28;20179;-92
2022/02/05 02:50:28;;;;;;;9.93;3.93;;;3.30;91.40;;;;;;5024350;28;20204;-92
2022/02/05 02:58:27;;;;;;;4.70;2.37;;;3.40;90.30;;;;;;5041240;28;20194;-91
2022/02/05 03:00:58;;;;;;;9.57;2.70;;;3.40;90.00;;;;;;5024630;28;20673;-92
2022/02/05 03:03:25;;;;;;;10.57;3.37;;;3.30;89.80;;;;;;5025841;28;20164;-92
2022/02/05 03:05:51;;;;;;;8.37;3.17;;;3.30;90.30;;;;;;5026061;28;20198;-92
2022/02/05 03:08:16;;;;;;;9.80;3.53;;;3.30;90.60;;;;;;5026917;28;20204;-92
2022/02/05 03:10:42;;;;;;;11.30;4.03;;;3.20;90.60;;;;;;5029705;28;20208;-92
2022/02/05 03:13:08;;;;;;;9.30;3.90;;;2.80;90.70;;;;;;5025768;28;20180;-92
2022/02/05 03:15:38;;;;;;;9.13;3.73;;;2.50;91.20;;;;;;5018797;28;20184;-92
2022/02/05 03:18:10;;;;;;;7.23;3.10;;;2.30;91.50;;;;;;5020148;28;20192;-92
2022/02/05 03:20:35;;;;;;;11.57;3.20;;;2.30;91.50;;;;;;5021818;28;20212;-92
2022/02/05 03:23:02;;;;;;;7.13;3.43;;;2.30;91.60;;;;;;5021258;28;20183;-92
2022/02/05 03:25:30;;;;;;;8.30;4.10;;;2.30;91.70;;;;;;5020031;28;20187;-92
2022/02/05 03:27:56;;;;;;;7.53;3.17;;;2.20;91.90;;;;;;5024462;28;20236;-92
2022/02/05 03:30:22;;;;;;;8.23;2.77;;;2.00;92.40;;;;;;5025014;28;20226;-92
2022/02/05 03:32:48;;;;;;;8.87;3.27;;;2.00;92.60;;;;;;5028262;28;20195;-92
2022/02/05 03:35:13;;;;;;;8.87;3.70;;;1.90;92.60;;;;;;5027691;28;20180;-92
2022/02/05 03:37:39;;;;;;;9.90;3.53;;;2.00;92.80;;;;;;5033871;28;20188;-92
2022/02/05 03:40:05;;;;;;;14.10;3.40;;;2.10;92.90;;;;;;5039236;28;20189;-92
2022/02/05 03:42:31;;;;;;;8.13;3.10;;;2.10;93.00;;;;;;5038940;28;20250;-92
2022/02/05 03:44:57;;;;;;;5.93;2.50;;;2.10;92.90;;;;;;5036078;28;20192;-92
2022/02/05 03:47:22;;;;;;;10.00;2.50;;;2.10;92.90;;;;;;5034311;28;20247;-92
2022/02/05 03:49:49;;;;;;;7.90;2.40;;;2.20;92.80;;;;;;5031638;28;20621;-92
2022/02/05 03:52:15;;;;;;;3.00;2.00;;;2.20;92.80;;;;;;5029901;28;20204;-91
2022/02/05 03:54:42;;;;;;;5.93;2.63;;;2.20;92.80;;;;;;5030268;28;20208;-92
2022/02/05 03:57:07;;;;;;;3.67;2.40;;;2.20;92.90;;;;;;5028641;28;20184;-92
2022/02/05 03:59:33;;;;;;;4.03;2.10;;;2.20;92.80;;;;;;5027801;28;20207;-92
2022/02/05 04:02:01;;;;;;;6.90;2.33;;;2.20;92.80;;;;;;5027047;28;20340;-92
2022/02/05 04:04:28;;;;;;;8.60;2.53;;;2.20;92.80;;;;;;5030857;28;20553;-92
2022/02/05 04:06:53;;;;;;;2.80;2.23;;;2.20;92.80;;;;;;5028976;28;20181;-92
2022/02/05 04:09:28;;;;;;;7.43;2.33;;;2.30;92.70;;;;;;5030651;28;20275;-92
2022/02/05 04:15:54;;;;;;;7.33;2.50;;;2.20;92.60;;;;;;5028706;28;20206;-92
2022/02/05 04:17:26;;;;;;;9.73;2.80;;;2.10;92.60;;;;;;5047726;28;20186;-91
2022/02/05 04:19:51;;;;;;;5.97;2.53;;;2.10;92.80;;;;;;5030576;28;20257;-92
2022/02/05 04:22:17;;;;;;;8.97;2.77;;;2.00;92.80;;;;;;5027828;28;20203;-91
2022/02/05 04:24:43;;;;;;;9.77;3.40;;;2.10;92.90;;;;;;5029421;28;20179;-92
2022/02/05 04:27:10;;;;;;;5.30;2.33;;;2.00;92.90;;;;;;5029004;28;20200;-93
2022/02/05 04:29:36;;;;;;;8.90;2.90;;;2.00;92.90;;;;;;5028465;28;20626;-93
2022/02/05 04:32:03;;;;;;;9.23;3.20;;;2.00;93.00;;;;;;5027398;28;20203;-92
2022/02/05 04:34:29;;;;;;;9.13;2.97;;;2.00;92.90;;;;;;5026693;28;20708;-92
2022/02/05 04:36:55;;;;;;;4.40;2.77;;;2.10;93.00;;;;;;5044155;28;20197;-92
2022/02/05 04:39:21;;;;;;;9.10;3.10;;;2.10;93.00;;;;;;5027575;28;20223;-92
2022/02/05 04:41:53;;;;;;;13.97;3.30;;;2.00;92.90;;;;;;5026769;28;20203;-92
2022/02/05 04:55:00;;;;;;;8.77;3.00;;;1.90;92.80;;;;;;5045701;28;20221;-92
2022/02/05 05:00:18;;;;;;;9.23;3.43;;;2.00;92.80;;;;;;5045266;28;20184;-92
2022/02/05 05:02:56;;;;;;;9.43;3.27;;;2.10;92.70;;;;;;5028092;28;20170;-92
2022/02/05 05:05:39;;;;;;;12.93;3.27;;;2.00;92.50;;;;;;5027132;28;20170;-92
2022/02/05 05:21:43;;;;;;;5.80;3.03;;;2.00;92.00;;;;;;5044690;28;20192;-92
2022/02/05 05:24:08;;;;;;;14.10;3.10;;;1.90;92.00;;;;;;5026398;28;20178;-92
2022/02/05 05:26:34;;;;;;;9.50;3.23;;;1.90;91.90;;;;;;5026666;28;20207;-92
2022/02/05 05:29:00;;;;;;;11.13;2.70;;;1.90;91.90;;;;;;5026720;28;20191;-91
2022/02/05 05:31:25;;;;;;;5.83;2.30;;;1.90;91.90;;;;;;5044784;28;20229;-92
2022/02/05 05:33:51;;;;;;;16.97;3.20;;;1.90;91.80;;;;;;5025968;28;20187;-92
2022/02/05 05:36:16;;;;;;;10.30;3.10;;;1.90;91.80;;;;;;5024063;28;20659;-92
2022/02/05 05:38:42;;;;;;;10.77;3.00;;;1.90;91.60;;;;;;5025644;28;20269;-92
2022/02/05 05:41:09;;;;;;;9.90;2.83;;;1.90;91.60;;;;;;5024832;28;20184;-92
2022/02/05 05:46:30;;;;;;;8.87;2.70;;;1.90;91.50;;;;;;5042387;28;20681;-92
2022/02/05 05:48:59;;;;;;;8.50;2.70;;;2.00;91.50;;;;;;5025305;28;20275;-92
2022/02/05 05:51:25;;;;;;;7.50;2.63;;;2.10;91.30;;;;;;5024612;28;20213;-92
2022/02/05 05:53:51;;;;;;;5.53;2.93;;;2.10;91.20;;;;;;5025641;28;20175;-92
2022/02/05 05:56:21;;;;;;;13.37;3.73;;;2.10;91.20;;;;;;5023992;28;20178;-92
2022/02/05 05:58:46;;;;;;;10.33;3.33;;;2.10;91.20;;;;;;5025462;28;20633;-92
2022/02/05 06:01:14;;;;;;;11.73;3.23;;;2.10;91.20;;;;;;5024932;28;20277;-92
2022/02/05 06:03:39;;;;;;;8.20;2.60;;;2.10;91.30;;;;;;5027919;28;20205;-92
2022/02/05 06:06:05;;;;;;;10.90;2.70;;;2.20;91.30;;;;;;5024765;28;20177;-92
2022/02/05 06:08:31;;;;;;;5.50;2.53;;;2.10;91.20;;;;;;5024499;28;20650;-93
2022/02/05 06:10:56;;;;;;;5.47;2.63;;;2.10;91.30;;;;;;5025512;28;20610;-92
2022/02/05 06:13:22;;;;;;;7.90;2.80;;;2.10;91.30;;;;;;5023890;28;20179;-92
2022/02/05 06:15:50;;;;;;;9.63;3.20;;;2.00;91.50;;;;;;5023297;28;20173;-92
2022/02/05 06:18:15;;;;;;;5.77;3.10;;;2.00;91.60;;;;;;5024029;28;20179;-92
2022/02/05 06:20:41;;;;;;;10.33;3.13;;;2.10;91.90;;;;;;5023683;28;20209;-92
2022/02/05 06:23:06;;;;;;;17.70;3.50;;;2.10;91.90;;;;;;5022870;28;20182;-93
2022/02/05 06:25:33;;;;;;;13.80;3.27;;;2.10;92.00;;;;;;5023254;28;20237;-92
2022/02/05 06:27:59;;;;;;;14.63;3.20;;;2.20;92.10;;;;;;5023209;28;20180;-92
2022/02/05 06:30:25;;;;;;;17.90;4.10;;;2.20;92.10;;;;;;5023115;28;20179;-92
2022/02/05 06:32:51;;;;;;;16.93;3.43;;;2.20;92.10;;;;;;5022500;28;20727;-92
2022/02/05 06:35:16;;;;;;;21.50;3.70;;;2.20;92.10;;;;;;5023446;28;20183;-92
2022/02/05 06:37:42;;;;;;;11.10;3.17;;;2.10;92.10;;;;;;5023186;28;20191;-92
2022/02/05 06:40:09;;;;;;;8.87;2.90;;;2.10;92.20;;;;;;5024708;28;20206;-92
2022/02/05 06:42:35;;;;;;;14.13;3.40;;;2.20;92.20;;;;;;5023916;28;20609;-92
2022/02/05 06:45:01;;;;;;;14.00;4.67;;;2.10;92.10;;;;;;5023782;28;20190;-92
2022/02/05 06:47:27;;;;;;;9.37;3.97;;;2.10;92.10;;;;;;5024065;28;20177;-92
2022/02/05 06:49:52;;;;;;;13.80;3.87;;;2.10;92.20;;;;;;5042634;28;20230;-92
2022/02/05 06:52:18;;;;;;;7.23;2.70;;;2.10;92.20;;;;;;5024685;28;20202;-92
2022/02/05 06:54:44;;;;;;;8.50;3.00;;;2.10;92.10;;;;;;5024098;28;20181;-92
2022/02/05 06:57:09;;;;;;;8.50;3.17;;;2.20;92.00;;;;;;5025953;28;20193;-92
2022/02/05 06:59:35;;;;;;;6.90;2.53;;;2.20;91.80;;;;;;5025266;28;20208;-92
2022/02/05 07:02:01;;;;;;;12.90;3.40;;;2.20;91.60;;;;;;5026282;28;20207;-92
2022/02/05 07:04:27;;;;;;;3.33;2.33;;;2.20;91.50;;;;;;5027281;28;20175;-93
2022/02/05 07:06:56;;;;;;;7.33;2.50;;;2.20;91.50;;;;;;5026439;28;20176;-92
2022/02/05 07:09:23;;;;;;;4.47;2.17;;;2.20;91.60;;;;;;5026802;28;20206;-92
2022/02/05 07:11:51;;;;;;;10.37;2.67;;;2.10;91.70;;;;;;5045017;28;20196;-92
2022/02/05 07:14:19;;;;;;;7.60;2.73;;;2.10;91.90;;;;;;5026182;28;20181;-92
2022/02/05 07:16:54;;;;;;;19.73;3.47;;;2.30;92.10;;;;;;5027341;28;20182;-92
2022/02/05 07:19:46;;;;;;;12.60;3.20;;;2.30;92.10;;;;;;5025984;28;20192;-91
2022/02/05 07:22:05;;;;;;;12.47;3.87;;;2.30;92.00;;;;;;5044923;28;20639;-91
2022/02/05 07:24:48;;;;;;;12.03;3.70;;;2.30;91.90;;;;;;5025483;28;20177;-92
2022/02/05 07:29:58;;;;;;;13.10;3.50;;;2.30;92.00;;;;;;5034416;28;20641;-91
2022/02/05 07:32:24;;;;;;;11.30;4.10;;;2.30;92.10;;;;;;5035104;28;20203;-93
2022/02/05 07:34:50;;;;;;;10.20;3.47;;;2.30;92.10;;;;;;5027439;28;20179;-92
2022/02/05 07:37:17;;;;;;;9.73;3.50;;;2.30;92.10;;;;;;5030921;28;20172;-90
2022/02/05 07:39:46;;;;;;;14.10;4.40;;;2.30;92.20;;;;;;5051228;28;20212;-91
2022/02/05 07:42:13;;;;;;;13.63;4.13;;;2.30;92.30;;;;;;5034735;28;20236;-92
2022/02/05 07:44:39;;;;;;;8.97;3.17;;;2.30;92.20;;;;;;5031146;28;20200;-92
2022/02/05 07:47:05;;;;;;;12.37;3.87;;;2.30;92.20;;;;;;5027970;28;20178;-91
2022/02/05 07:49:37;;;;;;;19.57;4.30;;;2.30;92.10;;;;;;5030746;28;20197;-91
2022/02/05 07:52:04;;;;;;;11.67;3.63;;;2.30;91.90;;;;;;5037894;28;20234;-92
2022/02/05 07:54:30;;;;;;;20.70;4.30;;;2.40;91.70;;;;;;5039110;28;20167;-91
2022/02/05 07:56:56;;;;;;;22.17;3.73;;;2.40;91.60;;;;;;5038125;28;20170;-93
2022/02/05 07:59:21;;;;;;;15.90;3.83;;;2.40;91.60;;;;;;5036649;28;20238;-92
2022/02/05 08:01:47;;;;;;;17.67;3.87;;;2.40;91.50;;;;;;5038497;28;20206;-92
2022/02/05 08:04:13;;;;;;;15.10;4.00;;;2.50;91.50;;;;;;5038399;28;20761;-93
2022/02/05 08:06:39;;;;;;;12.07;4.70;;;2.50;91.50;;;;;;5038142;28;20186;-90
2022/02/05 08:09:18;;;;;;;13.67;4.27;;;2.60;91.60;;;;;;5038526;28;20175;-92
2022/02/05 08:11:50;;;;;;;16.70;3.87;;;2.60;91.60;;;;;;5037357;28;20199;-92
2022/02/05 08:14:16;;;;;;;24.07;4.93;;;2.60;91.60;;;;;;5054703;28;20151;-92
2022/02/05 08:19:08;;;;;;;17.70;5.07;;;2.70;91.70;;;;;;5055576;28;20214;-93
2022/02/05 08:21:34;;;;;;;16.57;4.80;;;2.80;91.80;;;;;;5036541;28;20194;-93
2022/02/05 08:24:06;;;;;;;24.87;4.33;;;2.80;91.60;;;;;;5034174;28;20275;-92
2022/02/05 08:26:32;;;;;;;14.03;4.13;;;2.90;91.60;;;;;;5052380;28;20177;-92
2022/02/05 08:29:00;;;;;;;20.47;4.13;;;3.00;91.30;;;;;;5055337;28;20178;-93
2022/02/05 08:31:26;;;;;;;10.70;3.50;;;3.10;91.20;;;;;;5038202;28;20210;-91
2022/02/05 08:33:52;;;;;;;13.23;3.27;;;3.30;91.20;;;;;;5024773;28;20181;-93
2022/02/05 08:36:21;;;;;;;16.23;3.27;;;3.30;90.80;;;;;;5031347;28;20169;-93
2022/02/05 08:38:48;;;;;;;20.30;4.03;;;3.30;90.80;;;;;;5023404;28;20195;-89
2022/02/05 08:41:14;;;;;;;24.43;4.27;;;3.20;91.10;;;;;;5019956;28;20673;-93
2022/02/05 08:43:39;;;;;;;15.05;4.35;;;3.20;91.50;;;;;;4981377;28;1093787;-91
2022/02/05 08:46:05;;;;;;;23.77;4.73;;;3.20;91.60;;;;;;5035470;28;20648;-92
2022/02/05 08:48:30;;;;;;;6.70;3.60;;;3.20;91.80;;;;;;5033234;28;20244;-92
2022/02/05 08:50:56;;;;;;;21.17;4.37;;;3.20;91.50;;;;;;5031979;28;20205;-92
2022/02/05 08:53:22;;;;;;;9.70;3.73;;;3.10;91.60;;;;;;5033199;28;20184;-92
2022/02/05 08:55:49;;;;;;;21.53;4.83;;;3.10;91.70;;;;;;5030248;28;20174;-92
2022/02/05 08:58:15;;;;;;;17.50;4.47;;;3.10;91.60;;;;;;5046047;28;20175;-92
2022/02/05 09:00:47;;;;;;;18.77;4.93;;;3.00;91.90;;;;;;5025858;28;20226;-92
2022/02/05 09:03:26;;;;;;;18.87;4.80;;;3.00;92.00;;;;;;5028858;28;20177;-92
2022/02/05 09:05:53;;;;;;;15.77;4.47;;;3.00;92.00;;;;;;5030564;28;20206;-92
2022/02/05 09:08:26;;;;;;;12.40;4.30;;;3.00;92.10;;;;;;5037077;28;20164;-93
2022/02/05 09:13:54;;;;;;;23.60;4.60;;;3.30;91.90;;;;;;5053445;28;20192;-92
2022/02/05 09:16:19;;;;;;;17.47;4.43;;;3.40;91.50;;;;;;5037026;28;20180;-92
2022/02/05 09:18:46;;;;;;;12.90;4.33;;;3.50;91.50;;;;;;5034594;28;20191;-93
2022/02/05 09:21:12;;;;;;;15.63;5.20;;;3.50;91.40;;;;;;5033796;28;20200;-93
2022/02/05 09:23:40;;;;;;;20.03;4.37;;;3.50;91.40;;;;;;5036997;28;20188;-92
2022/02/05 09:26:11;;;;;;;22.43;5.07;;;3.40;91.50;;;;;;5036908;28;20207;-92
2022/02/05 09:28:36;;;;;;;7.27;3.43;;;3.40;91.50;;;;;;5036352;28;20176;-93
2022/02/05 09:31:24;;;;;;;17.87;4.13;;;3.60;91.40;;;;;;5036367;28;20222;-93
2022/02/05 09:33:48;;;;;;;18.27;4.67;;;3.60;91.30;;;;;;5054310;28;20177;-93
2022/02/05 09:36:14;;;;;;;21.37;3.90;;;3.80;91.10;;;;;;5039153;28;20200;-92
2022/02/05 09:38:40;;;;;;;14.47;3.47;;;3.90;90.90;;;;;;5053820;28;20168;-92
2022/02/05 09:41:06;;;;;;;22.20;4.57;;;4.00;90.50;;;;;;5051026;28;20215;-92
2022/02/05 09:43:31;;;;;;;14.03;3.40;;;4.10;90.20;;;;;;5034646;28;20199;-91
2022/02/05 09:45:58;;;;;;;12.33;3.90;;;4.10;90.20;;;;;;5036653;28;20157;-92
2022/02/05 09:48:30;;;;;;;15.53;2.80;;;4.20;90.20;;;;;;5034867;28;20177;-92
2022/02/05 09:51:04;;;;;;;11.70;2.83;;;4.20;88.90;;;;;;5040292;28;20201;-92
2022/02/05 09:53:30;;;;;;;17.27;4.00;;;4.30;89.20;;;;;;5019926;28;20617;-90
2022/02/05 09:55:58;;;;;;;13.70;4.00;;;4.30;89.30;;;;;;5034746;28;20203;-92
2022/02/05 09:58:24;;;;;;;14.03;3.07;;;4.40;88.80;;;;;;5032531;28;20167;-92
2022/02/05 10:01:22;;;;;;;11.60;3.07;;;4.50;89.10;;;;;;5048923;28;20212;-93
2022/02/05 10:03:50;;;;;;;21.67;3.80;;;4.60;89.00;;;;;;5027866;28;20179;-92
2022/02/05 10:06:24;;;;;;;17.20;4.10;;;4.60;88.40;;;;;;5034209;28;20185;-91
2022/02/05 10:09:00;;;;;;;21.97;4.33;;;4.60;88.30;;;;;;5057195;28;20149;-91
2022/02/05 10:11:29;;;;;;;15.03;3.30;;;4.60;88.20;;;;;;5040984;28;20185;-92
2022/02/05 10:13:56;;;;;;;19.13;4.10;;;4.50;87.90;;;;;;5040565;28;20166;-91
2022/02/05 10:16:30;;;;;;;18.10;3.67;;;4.70;88.00;;;;;;5031241;28;20199;-92
2022/02/05 10:18:59;;;;;;;10.53;3.83;;;4.80;88.20;;;;;;5031386;28;20197;-91
2022/02/05 10:21:27;;;;;;;17.77;3.83;;;4.90;87.40;;;;;;5032750;28;20233;-92
2022/02/05 10:24:08;;;;;;;17.47;4.20;;;5.00;87.20;;;;;;5032924;28;20186;-92
2022/02/05 10:26:44;;;;;;;17.60;4.20;;;5.00;87.10;;;;;;5023938;28;20256;-92
2022/02/05 10:29:18;;;;;;;16.07;3.60;;;5.10;86.90;;;;;;5027365;28;20177;-92
2022/02/05 10:31:59;;;;;;;12.30;3.00;;;5.20;86.90;;;;;;5026032;28;20199;-91
2022/02/05 10:34:27;;;;;;;19.40;3.90;;;5.30;86.50;;;;;;5038781;28;20297;-90
2022/02/05 10:37:20;;;;;;;14.37;3.17;;;5.40;86.10;;;;;;5033891;28;20580;-89
2022/02/05 10:45:11;;;;;;;12.93;3.93;;;5.40;85.40;;;;;;5045156;28;20254;-92
2022/02/05 10:47:55;;;;;;;17.73;5.10;;;5.40;85.40;;;;;;5022987;28;20179;-92
2022/02/05 10:50:26;;;;;;;16.23;4.10;;;5.40;85.30;;;;;;5033309;28;20194;-92
2022/02/05 10:53:02;;;;;;;18.80;3.77;;;5.50;85.60;;;;;;5029408;28;20256;-92
2022/02/05 11:07:19;;;;;;;22.00;4.20;;;5.50;84.30;;;;;;5043651;28;20189;-92
2022/02/05 11:09:53;;;;;;;22.17;4.30;;;5.60;85.10;;;;;;5029903;28;20206;-92
2022/02/05 11:12:22;;;;;;;14.87;4.23;;;5.60;85.30;;;;;;5038229;28;20189;-92
2022/02/05 11:18:30;;;;;;;16.80;4.40;;;5.90;84.80;;;;;;5043151;28;20172;-92
2022/02/05 11:21:04;;;;;;;14.23;3.40;;;5.90;84.90;;;;;;5054817;28;20218;-92
2022/02/05 11:26:06;;;;;;;22.03;4.33;;;5.70;85.00;;;;;;5107927;22;20238;-90
2022/02/05 11:28:49;;;;;;;22.73;4.27;;;5.60;84.80;;;;;;5024108;28;20174;-90
2022/02/05 11:31:46;;;;;;;17.57;4.17;;;5.50;83.90;;;;;;5032227;28;20698;-91
2022/02/05 11:34:26;;;;;;;15.17;4.00;;;5.40;83.40;;;;;;5069032;28;20219;-91
2022/02/05 11:37:14;;;;;;;13.57;4.50;;;5.50;84.20;;;;;;5046499;28;20170;-91
2022/02/05 11:39:51;;;;;;;8.03;3.63;;;5.50;84.40;;;;;;5039448;28;20204;-91
2022/02/05 11:42:28;;;;;;;14.07;3.13;;;5.50;83.60;;;;;;5058890;28;20190;-91
2022/02/05 11:44:58;;;;;;;15.83;3.17;;;5.50;83.60;;;;;;5040462;28;20169;-91
2022/02/05 11:47:26;;;;;;;13.90;3.90;;;5.70;84.80;;;;;;5040367;28;20170;-91
2022/02/05 11:49:57;;;;;;;23.50;4.67;;;5.70;83.80;;;;;;5044479;28;20175;-91
2022/02/05 11:52:35;;;;;;;16.13;4.13;;;5.80;83.60;;;;;;5042501;28;20198;-92
2022/02/05 11:55:07;;;;;;;14.47;3.43;;;5.90;82.90;;;;;;5048017;28;20187;-91
2022/02/05 11:58:01;;;;;;;13.03;4.13;;;6.00;83.20;;;;;;5043369;28;20194;-91
2022/02/05 12:00:39;;;;;;;19.27;3.67;;;5.90;82.10;;;;;;5043476;28;20244;-90
2022/02/05 12:03:29;;;;;;;11.43;3.33;;;5.70;82.00;;;;;;5047912;28;20171;-92
2022/02/05 12:06:00;;;;;;;18.77;3.40;;;5.70;81.60;;;;;;5047708;28;20197;-91
2022/02/05 12:08:34;;;;;;;15.50;3.67;;;5.90;81.90;;;;;;5052194;28;20175;-91
2022/02/05 12:11:03;;;;;;;13.73;4.60;;;5.90;82.20;;;;;;5053585;28;20213;-92
2022/02/05 12:13:39;;;;;;;13.47;4.00;;;5.80;82.50;;;;;;5052152;28;20546;-91
2022/02/05 12:16:59;;;;;;;16.93;3.10;;;5.90;81.50;;;;;;5053642;28;20187;-94
2022/02/05 12:19:28;;;;;;;15.23;3.63;;;5.90;82.50;;;;;;4949211;29;20354;-93
2022/02/05 12:22:12;;;;;;;26.60;5.27;;;5.90;82.30;;;;;;5043858;28;20214;-91
2022/02/05 12:25:16;;;;;;;14.50;3.53;;;5.80;82.60;;;;;;5049267;28;20277;-91
2022/02/05 12:27:45;;;;;;;14.73;3.83;;;5.80;82.80;;;;;;5043042;28;20234;-90
2022/02/05 12:30:26;;;;;;;11.37;3.67;;;5.90;82.60;;;;;;5041444;28;20181;-91
2022/02/05 12:32:56;;;;;;;13.93;3.37;;;5.80;82.10;;;;;;5041672;28;20184;-91
2022/02/05 12:35:22;;;;;;;27.37;4.53;;;6.00;81.50;;;;;;5039426;28;20189;-90
2022/02/05 12:37:47;;;;;;;16.07;4.80;;;6.00;82.00;;;;;;5038970;28;20175;-91
2022/02/05 12:40:13;;;;;;;22.77;4.40;;;5.80;82.20;;;;;;5039210;28;20210;-91
2022/02/05 12:42:40;;;;;;;21.87;4.33;;;5.90;82.10;;;;;;5041620;28;20193;-90
2022/02/05 12:45:11;;;;;;;13.17;3.83;;;6.00;82.70;;;;;;5059548;28;20246;-91
2022/02/05 12:47:42;;;;;;;19.47;3.97;;;5.90;83.00;;;;;;5040868;28;20168;-90
2022/02/05 12:50:15;;;;;;;9.13;3.40;;;5.80;82.30;;;;;;5040518;28;20183;-90
2022/02/05 12:52:47;;;;;;;10.60;3.93;;;5.80;82.00;;;;;;5040368;28;20180;-92
2022/02/05 12:55:25;;;;;;;23.03;4.40;;;5.80;82.60;;;;;;5041697;28;20199;-92
2022/02/05 12:58:03;;;;;;;28.43;5.13;;;5.90;83.30;;;;;;5041716;28;20176;-91
2022/02/05 13:00:32;;;;;;;13.73;3.23;;;5.90;82.80;;;;;;5040506;28;20201;-92
2022/02/05 13:02:57;;;;;;;19.97;4.23;;;5.80;82.70;;;;;;5042455;28;20232;-91
2022/02/05 13:05:34;;;;;;;19.20;4.50;;;5.90;82.90;;;;;;5044960;28;20180;-92
2022/02/05 13:07:59;;;;;;;16.30;4.10;;;5.90;82.70;;;;;;5048367;28;20215;-92
2022/02/05 13:10:26;;;;;;;21.07;4.10;;;5.90;83.00;;;;;;5043683;28;20682;-92
2022/02/05 13:12:56;;;;;;;15.67;3.27;;;5.90;82.60;;;;;;5041198;28;20220;-92
2022/02/05 13:15:27;;;;;;;15.67;4.10;;;5.90;81.50;;;;;;5044044;28;20216;-91
2022/02/05 14:25:32;;;;;;;16.23;3.80;;;5.90;81.20;;;;;;3875535;22;20239;-93
2022/02/05 14:28:24;;;;;;;17.43;3.53;;;5.90;81.90;;;;;;5029587;28;20222;-93
2022/02/05 14:31:09;;;;;;;9.90;4.20;;;5.90;81.70;;;;;;5035730;28;20603;-93
2022/02/05 14:42:28;;;;;;;17.80;4.83;;;5.80;82.40;;;;;;5064160;28;20221;-93
2022/02/05 14:52:15;;;;;;;15.17;3.30;;;5.80;82.70;;;;;;5031942;28;20357;-94
2022/02/05 14:55:42;;;;;;;;;;;;;;;;;;;;;
2022/02/05 15:02:08;;;;;;;20.73;3.93;;;5.80;82.40;;;;;;5002121;28;20254;-94
2022/02/05 15:43:45;;;;;;;9.47;3.10;;;5.50;82.00;;;;;;5037739;28;20165;-92
2022/02/05 15:46:29;;;;;;;12.47;2.97;;;5.50;81.60;;;;;;5028188;28;20163;-92
2022/02/05 15:49:11;;;;;;;12.73;3.33;;;5.50;81.50;;;;;;5038081;28;20171;-93
2022/02/05 15:52:01;;;;;;;10.73;3.47;;;5.50;81.10;;;;;;5039039;28;20198;-93
2022/02/05 15:55:17;;;;;;;10.17;2.57;;;5.50;80.90;;;;;;5056482;28;20171;-93
2022/02/05 16:01:24;;;;;;;15.40;3.77;;;5.40;80.90;;;;;;5044361;28;20712;-93
2022/02/05 16:05:09;;;;;;;12.17;4.07;;;5.40;80.80;;;;;;5033915;28;20186;-91
2022/02/05 16:07:16;;;;;;;6.17;2.87;;;5.40;81.00;;;;;;5039040;28;20244;-92
2022/02/05 16:09:50;;;;;;;6.57;3.00;;;5.50;80.70;;;;;;5043006;28;20151;-93
2022/02/05 16:12:48;;;;;;;;;;;;;;;;;;;;;
2022/02/05 16:16:04;;;;;;;14.30;3.37;;;5.40;80.30;;;;;;5058893;28;20207;-93
2022/02/05 16:22:26;;;;;;;10.70;3.03;;;5.40;80.90;;;;;;5267291;22;20238;-93
2022/02/05 16:29:08;;;;;;;9.13;2.60;;;5.50;79.80;;;;;;4942748;29;20195;-93
2022/02/05 16:38:15;;;;;;;7.80;3.20;;;5.40;80.50;;;;;;4999211;28;20197;-93
2022/02/05 16:40:49;;;;;;;5.87;3.23;;;5.50;80.40;;;;;;4995788;28;20298;-92
2022/02/05 16:46:39;;;;;;;9.57;3.07;;;5.50;80.10;;;;;;5029326;28;20180;-92
2022/02/05 16:49:24;;;;;;;17.77;3.07;;;5.50;80.90;;;;;;5018876;28;20182;-93
2022/02/05 16:51:51;;;;;;;9.90;3.67;;;5.50;80.60;;;;;;5003193;28;20254;-91
2022/02/05 16:54:27;;;;;;;13.33;3.90;;;5.60;79.90;;;;;;5025012;28;20273;-92
2022/02/05 16:56:53;;;;;;;4.73;2.73;;;5.40;80.90;;;;;;5022757;28;20176;-92
2022/02/05 16:59:39;;;;;;;9.60;2.87;;;5.50;80.40;;;;;;5021544;28;20278;-93
2022/02/05 17:02:05;;;;;;;12.60;3.70;;;5.60;80.70;;;;;;5018757;28;20419;-92
2022/02/05 17:04:59;;;;;;;18.03;3.60;;;5.40;80.60;;;;;;5021392;28;20185;-93
2022/02/05 17:07:59;;;;;;;8.07;2.43;;;5.30;81.20;;;;;;5012585;28;20199;-93
2022/02/05 17:10:32;;;;;;;4.43;2.20;;;5.40;80.90;;;;;;5034968;28;20191;-92
2022/02/05 17:13:06;;;;;;;10.37;3.97;;;5.40;80.70;;;;;;5021978;28;20202;-93
2022/02/05 17:15:34;;;;;;;6.43;2.77;;;5.40;80.60;;;;;;5002517;28;20185;-92
2022/02/05 17:19:05;;;;;;;9.20;2.73;;;5.40;80.60;;;;;;5012349;28;20180;-92
2022/02/05 17:21:15;;;;;;;5.93;2.90;;;5.40;80.80;;;;;;5027170;28;20210;-92
2022/02/05 17:23:52;;;;;;;4.70;2.63;;;5.40;80.80;;;;;;5018741;28;20175;-93
2022/02/05 17:26:20;;;;;;;9.70;3.17;;;5.50;80.60;;;;;;5022131;28;20201;-92
2022/02/05 17:28:47;;;;;;;8.67;3.30;;;5.30;81.60;;;;;;5020592;28;20165;-93
2022/02/05 17:31:17;;;;;;;11.77;2.90;;;5.30;81.70;;;;;;5020323;28;20205;-93
2022/02/05 17:33:50;;;;;;;11.47;3.50;;;5.40;81.40;;;;;;5021970;28;20168;-93
2022/02/05 17:36:20;;;;;;;4.53;3.00;;;5.30;81.30;;;;;;5022750;28;20212;-92
2022/02/05 17:39:01;;;;;;;7.07;2.43;;;5.40;81.20;;;;;;5019966;28;20176;-91
2022/02/05 17:41:27;;;;;;;10.00;2.80;;;5.40;81.20;;;;;;5022858;28;20273;-93
2022/02/05 17:44:19;;;;;;;9.80;2.60;;;5.50;80.70;;;;;;5013951;28;20177;-92
2022/02/05 17:46:48;;;;;;;11.27;3.20;;;5.50;80.70;;;;;;5004083;28;20186;-93
2022/02/05 17:49:18;;;;;;;11.40;3.07;;;5.50;80.50;;;;;;5024911;28;20201;-92
2022/02/05 17:51:44;;;;;;;13.30;3.20;;;5.50;81.00;;;;;;5025848;28;20195;-92
2022/02/05 17:54:10;;;;;;;5.10;2.97;;;5.50;80.70;;;;;;5025559;28;20171;-92
2022/02/05 17:56:41;;;;;;;7.60;2.90;;;5.50;80.60;;;;;;5009659;28;20185;-93
2022/02/05 17:59:17;;;;;;;10.47;2.90;;;5.50;80.50;;;;;;5012245;28;20654;-92